Walworth, United Kingdom
Current Conditions -  °F | °C
As of 4:20 PM on Friday 19 Dec 2014 (Local Time) from EGLC Reporting Station
Few Clouds Few Clouds  
Wind Chill: 42°   Ceiling: Unl
Heat Index: 48°   Visibility: 6mi
Dew Point: 34°   Wind: 17mph
Humidity: 57%   Direction: 270°W
Pressure: 30.06"   Gusts: NA
Location:  51.49°N, 0.09°W
Report Text: EGLC 191620Z 27015KT 9999 FEW040 09/01 Q1018
Loading
Personal Weather Stations






























Interactive Weather Map New forecast layout! Learn more

10-Day Weather Forecast

Advertisements
Track Severe Weather on mobile